Decoded Metar for KPQL (PASCAGOULA in MS, USA) (IATA:PQL) | Meteo·Mobile Aviation Weather
aviador You're here:

KPQL Decoded Metar

PASCAGOULA in MS, USA
Report Time2018-09-19 13:53:00
UTC Time2018-09-19 14:39:25
Flight Rules vfr VFR
Wind010° at 04 kt
W.Decomp.*RWY 35: 3.8 kt HW 1.3 kt RCW
W.Rank010° ranks 3
Current wind is below 010° avg. (6.8)
Visibility9999 m
Phenomena:N/A
Clouds:N/A
Expected CloudBase > 2,000 ft AGL from Temp-Dew spread
CeilingNone
Temp29°C (ISA +14)
Dew Point24°C (74% RH)
Heat Index33.5°C
QNH1015 hPa
Density Alt1,955 ft
Elevation20 ft
Report Wrong Elevation
Raw Report
KPQL 191353Z 01004KT 10SM CLR 29/24 A2998 RMK AO2 SLP153
T02890239=

Extra information for KPQL:More info

Metar Taf Metar & Taf Last 4 Metars F.Rules Stats Wind Profile Meteogram Temp Stats Airport Information Weather charts Add Link Nearby VenuesMetar ALERT Operation Metar Decoded Social comments

AIRNAV info for KPQL